Time;durP1;ratioP1;P1;durP2;ratioP2;P2;SDS_P1;SDS_P2;PMS_P1;PMS_P2;Temp;Humidity;BMP_temperature;BMP_pressure;BME280_temperature;BME280_humidity;BME280_pressure;Samples;Min_cycle;Max_cycle;Signal;HPM_P1;HPM_P2
2022/12/22 14:57:11;;;;;;;0.40;0.40;;;;;;;8.83;100.00;97418.53;15317054;19;20039;-83
2022/12/22 15:02:41;;;;;;;0.55;0.40;;;;;;;8.86;100.00;97425.38;15315497;19;20010;-82
2022/12/22 15:08:08;;;;;;;1.00;0.50;;;;;;;8.86;100.00;97438.81;15316662;19;20416;-83
2022/12/22 15:13:37;;;;;;;0.80;0.57;;;;;;;8.79;100.00;97439.53;15322848;19;20531;-85
2022/12/22 15:19:03;;;;;;;0.40;0.40;;;;;;;8.70;100.00;97426.28;15318662;19;20018;-84
2022/12/22 15:24:30;;;;;;;0.70;0.70;;;;;;;8.64;100.00;97442.06;15317557;19;20480;-84
2022/12/22 15:29:58;;;;;;;0.40;0.40;;;;;;;8.66;100.00;97454.50;15318674;19;20077;-83
2022/12/22 15:35:27;;;;;;;0.60;0.60;;;;;;;8.64;100.00;97462.72;15318625;19;20010;-85
2022/12/22 15:41:00;;;;;;;0.85;0.60;;;;;;;8.53;100.00;97458.56;15317776;19;20092;-85
2022/12/22 15:46:28;;;;;;;0.55;0.55;;;;;;;8.56;100.00;97470.81;15319789;19;20084;-85
2022/12/22 15:51:55;;;;;;;0.50;0.50;;;;;;;8.51;100.00;97479.38;15331458;19;20003;-87
2022/12/22 15:57:20;;;;;;;0.55;0.50;;;;;;;8.49;100.00;97486.75;15364307;19;20022;-88
2022/12/22 16:02:47;;;;;;;0.60;0.60;;;;;;;8.48;100.00;97487.78;15360461;19;20017;-85
2022/12/22 16:08:16;;;;;;;0.50;0.50;;;;;;;8.49;100.00;97502.88;15373426;19;20003;-84
2022/12/22 16:13:41;;;;;;;0.68;0.68;;;;;;;8.53;100.00;97517.59;15366485;19;20041;-87
2022/12/22 16:19:12;;;;;;;0.70;0.60;;;;;;;8.50;100.00;97517.97;15370835;19;20011;-88
2022/12/22 16:24:37;;;;;;;0.70;0.70;;;;;;;8.51;100.00;97527.72;15371199;19;20018;-90
2022/12/22 16:30:02;;;;;;;0.95;0.80;;;;;;;8.55;100.00;97534.38;15378614;19;20037;-89
2022/12/22 16:35:35;;;;;;;0.80;0.80;;;;;;;8.50;100.00;97526.03;15314792;19;20460;-84
2022/12/22 16:41:13;;;;;;;1.20;1.10;;;;;;;8.47;100.00;97534.38;15311258;19;20362;-83
2022/12/22 16:46:41;;;;;;;1.15;0.90;;;;;;;8.42;100.00;97540.25;15309872;19;20082;-84
2022/12/22 16:52:06;;;;;;;1.08;1.00;;;;;;;8.33;100.00;97552.84;15306097;19;20439;-84
2022/12/22 19:59:36;;;;;;;1.85;1.70;;;;;;;6.79;100.00;97514.63;15296408;19;19998;-85
2022/12/22 20:05:02;;;;;;;2.40;2.20;;;;;;;6.80;100.00;97496.75;15296394;19;20490;-84
2022/12/22 20:10:34;;;;;;;2.20;2.00;;;;;;;6.78;100.00;97485.34;15301604;19;20018;-83
2022/12/22 20:16:02;;;;;;;2.53;2.30;;;;;;;6.78;100.00;97483.50;15299484;19;20017;-83
2022/12/22 20:21:33;;;;;;;2.60;2.40;;;;;;;6.78;100.00;97471.97;15296630;19;20637;-86
2022/12/22 20:27:01;;;;;;;2.72;2.53;;;;;;;6.79;100.00;97476.31;15302438;19;20018;-84
2022/12/22 20:32:28;;;;;;;2.40;2.20;;;;;;;6.80;100.00;97475.34;15273145;19;20070;-84
2022/12/22 20:37:53;;;;;;;1.80;1.70;;;;;;;6.79;100.00;97473.66;15302233;19;20338;-83
2022/12/22 20:43:22;;;;;;;2.70;1.48;;;;;;;6.77;100.00;97468.44;15299909;19;20355;-84
2022/12/22 20:48:54;;;;;;;1.65;1.55;;;;;;;6.77;100.00;97457.72;15300943;19;20374;-83
2022/12/22 20:54:22;;;;;;;1.88;1.63;;;;;;;6.78;100.00;97435.31;15304384;19;20013;-83
2022/12/22 20:59:51;;;;;;;1.88;1.70;;;;;;;6.78;100.00;97431.81;15367051;19;20011;-83
2022/12/22 21:05:11;;;;;;;1.92;1.77;;;;;;;6.81;100.00;97427.97;15299679;19;20426;-84
2022/12/22 21:10:36;;;;;;;2.00;1.80;;;;;;;6.84;100.00;97431.16;15299467;19;20070;-84
2022/12/22 21:16:01;;;;;;;1.90;1.80;;;;;;;6.85;100.00;97427.47;15291419;19;20015;-82
2022/12/22 21:21:28;;;;;;;1.98;1.88;;;;;;;6.83;100.00;97416.09;15289941;19;20010;-83
2022/12/22 21:26:56;;;;;;;1.90;1.80;;;;;;;6.85;100.00;97413.28;15287031;19;20358;-84
2022/12/22 21:32:21;;;;;;;1.90;1.80;;;;;;;6.90;100.00;97408.25;15293388;19;20029;-84
2022/12/22 21:37:58;;;;;;;1.70;1.60;;;;;;;6.93;100.00;97402.56;15287367;19;20628;-82
2022/12/22 21:43:23;;;;;;;1.83;1.73;;;;;;;6.96;100.00;97404.94;15288985;19;20035;-83
2022/12/22 21:48:48;;;;;;;1.90;1.70;;;;;;;7.01;100.00;97407.13;15292459;19;20480;-81
2022/12/22 21:54:15;;;;;;;4.00;1.85;;;;;;;7.05;100.00;97409.31;15292214;19;20017;-83
2022/12/22 21:59:40;;;;;;;1.58;1.48;;;;;;;7.06;100.00;97413.66;15282148;19;20009;-82
2022/12/22 22:05:06;;;;;;;1.95;1.67;;;;;;;7.06;100.00;97408.31;15292895;19;20018;-82
2022/12/22 22:10:36;;;;;;;1.60;1.50;;;;;;;7.08;100.00;97402.78;15293733;19;20036;-83
2022/12/22 22:16:06;;;;;;;1.80;1.70;;;;;;;7.08;100.00;97398.28;15310833;19;20092;-83
2022/12/22 22:21:25;;;;;;;1.20;1.20;;;;;;;7.11;100.00;97380.19;15305983;19;20014;-81
2022/12/22 22:26:54;;;;;;;1.10;1.10;;;;;;;7.14;100.00;97385.22;15304062;19;20017;-83
2022/12/22 22:32:19;;;;;;;1.77;1.40;;;;;;;7.14;100.00;97385.22;15296161;19;20025;-84
2022/12/22 22:37:51;;;;;;;1.33;1.23;;;;;;;7.15;100.00;97384.22;15303695;19;20033;-83
2022/12/22 22:43:19;;;;;;;1.30;1.20;;;;;;;7.13;100.00;97371.00;15298074;19;20070;-83
2022/12/22 22:48:44;;;;;;;1.45;1.27;;;;;;;7.11;100.00;97364.97;15307420;19;20022;-84
2022/12/22 22:54:16;;;;;;;2.67;1.25;;;;;;;7.11;100.00;97358.78;15301013;19;20022;-85
2022/12/22 22:59:44;;;;;;;1.38;1.27;;;;;;;7.07;100.00;97340.34;15303244;19;20035;-84
2022/12/22 23:05:09;;;;;;;1.75;1.40;;;;;;;7.03;100.00;97333.66;15296726;19;20074;-83
2022/12/22 23:10:39;;;;;;;1.58;1.20;;;;;;;7.03;100.00;97327.47;15303913;19;20011;-83
2022/12/22 23:16:09;;;;;;;1.88;1.20;;;;;;;6.99;100.00;97308.22;15300150;19;20014;-83
2022/12/22 23:21:33;;;;;;;1.30;1.20;;;;;;;6.99;100.00;97302.88;15304687;19;20059;-83
2022/12/22 23:27:00;;;;;;;2.72;1.42;;;;;;;6.94;100.00;97305.19;15307186;19;20361;-83
2022/12/22 23:32:27;;;;;;;1.40;1.23;;;;;;;6.92;100.00;97296.47;15309268;19;20021;-83
2022/12/22 23:37:59;;;;;;;1.77;1.10;;;;;;;6.97;100.00;97290.63;15308478;19;20022;-83
2022/12/22 23:43:24;;;;;;;1.27;1.00;;;;;;;7.02;100.00;97291.78;15304960;19;20069;-85
2022/12/22 23:48:53;;;;;;;1.77;0.90;;;;;;;7.13;100.00;97287.09;15309490;19;20531;-85
2022/12/22 23:54:18;;;;;;;1.67;1.08;;;;;;;7.19;100.00;97286.44;15304055;19;20002;-85
2022/12/22 23:59:44;;;;;;;2.90;1.20;;;;;;;7.25;100.00;97285.78;15298920;19;20501;-83
